createdAt,value
2018-11-21T00:00:13.206Z,64.80
2018-11-21T00:02:42.326Z,69.67
2018-11-21T00:05:11.439Z,65.87
2018-11-21T00:07:40.957Z,62.10
2018-11-21T00:10:11.532Z,70.57
2018-11-21T00:12:42.291Z,75.37
2018-11-21T00:15:11.979Z,62.60
2018-11-21T00:17:40.901Z,63.70
2018-11-21T00:20:10.773Z,66.63
2018-11-21T00:22:39.721Z,59.27
2018-11-21T00:25:08.769Z,66.93
2018-11-21T00:27:37.667Z,66.33
2018-11-21T00:30:09.520Z,70.67
2018-11-21T00:32:38.467Z,68.80
2018-11-21T00:35:08.538Z,65.90
2018-11-21T00:37:37.499Z,74.47
2018-11-21T00:40:11.095Z,67.20
2018-11-21T00:42:46.362Z,61.83
2018-11-21T00:45:09.849Z,66.07
2018-11-21T00:47:39.468Z,71.60
2018-11-21T00:50:08.377Z,71.57
2018-11-21T00:52:37.571Z,67.67
2018-11-21T00:55:07.065Z,67.23
2018-11-21T00:57:35.996Z,63.77
2018-11-21T01:00:06.720Z,67.27
2018-11-21T01:02:35.999Z,68.20
2018-11-21T01:05:05.246Z,67.17
2018-11-21T01:07:34.147Z,65.53
2018-11-21T01:10:03.070Z,73.67
2018-11-21T01:12:32.349Z,65.43
2018-11-21T01:15:01.541Z,62.23
2018-11-21T01:17:30.463Z,59.20
2018-11-21T01:19:59.370Z,61.30
2018-11-21T01:22:28.265Z,63.80
2018-11-21T01:24:57.156Z,63.53
2018-11-21T01:27:26.105Z,63.13
2018-11-21T01:29:55.026Z,66.40
2018-11-21T01:32:23.923Z,74.27
2018-11-21T01:34:52.860Z,80.43
2018-11-21T01:37:21.764Z,68.27
2018-11-21T01:39:50.918Z,65.73
2018-11-21T01:42:19.817Z,68.27
2018-11-21T01:44:48.718Z,76.17
2018-11-21T01:47:17.611Z,65.67
2018-11-21T01:49:46.541Z,71.57
2018-11-21T01:52:15.505Z,74.57
2018-11-21T01:54:44.398Z,64.57
2018-11-21T01:57:13.295Z,65.67
2018-11-21T01:59:42.303Z,65.13
2018-11-21T02:02:11.296Z,67.37
2018-11-21T02:04:40.182Z,70.53
2018-11-21T02:07:09.803Z,67.97
2018-11-21T02:09:39.075Z,66.37
2018-11-21T02:12:08.685Z,69.70
2018-11-21T02:14:38.120Z,70.17
2018-11-21T02:17:07.690Z,62.17
2018-11-21T02:19:36.896Z,68.33
2018-11-21T02:22:05.990Z,68.97
2018-11-21T02:24:35.352Z,66.80
2018-11-21T02:27:05.045Z,66.13
2018-11-21T02:29:34.231Z,68.03
2018-11-21T02:32:03.403Z,64.57
2018-11-21T02:34:33.029Z,65.70
2018-11-21T02:37:02.333Z,63.50
2018-11-21T02:39:31.478Z,66.40
2018-11-21T02:42:00.771Z,61.70
2018-11-21T02:44:32.545Z,68.03
2018-11-21T02:46:59.880Z,58.97
2018-11-21T02:49:29.115Z,62.17
2018-11-21T02:52:01.341Z,62.77
2018-11-21T02:54:30.562Z,61.83
2018-11-21T02:57:32.663Z,58.67
2018-11-21T03:00:04.524Z,61.47
2018-11-21T03:02:33.757Z,64.10
2018-11-21T03:05:03.479Z,59.23
2018-11-21T03:07:32.406Z,62.27
2018-11-21T03:10:01.560Z,64.23
2018-11-21T03:12:31.588Z,65.40
2018-11-21T03:15:00.797Z,61.17
2018-11-21T03:17:29.795Z,61.93
2018-11-21T03:19:58.866Z,67.87
2018-11-21T03:22:28.769Z,60.23
2018-11-21T03:24:57.823Z,63.47
2018-11-21T03:27:26.887Z,63.33
2018-11-21T03:29:56.020Z,61.53
2018-11-21T03:32:25.238Z,65.67
2018-11-21T03:34:54.866Z,59.70
2018-11-21T03:37:25.285Z,58.70
2018-11-21T03:39:54.804Z,58.50
2018-11-21T03:42:24.036Z,64.77
2018-11-21T03:44:53.892Z,59.40
2018-11-21T03:47:23.447Z,61.07
2018-11-21T03:49:52.973Z,60.97
2018-11-21T03:52:22.106Z,57.60
2018-11-21T03:54:53.439Z,59.27
2018-11-21T03:57:23.068Z,63.53
2018-11-21T03:59:54.105Z,56.63
2018-11-21T04:02:25.235Z,60.80
2018-11-21T04:04:55.278Z,60.17
2018-11-21T04:07:24.379Z,63.43
2018-11-21T04:09:53.644Z,58.47
2018-11-21T04:12:23.213Z,52.13
2018-11-21T04:14:52.850Z,64.63
2018-11-21T04:17:23.350Z,56.50
2018-11-21T04:19:52.670Z,57.80
2018-11-21T04:22:23.184Z,56.27
2018-11-21T04:24:52.479Z,57.13
2018-11-21T04:27:23.383Z,65.30
2018-11-21T04:29:52.629Z,61.83
2018-11-21T04:32:22.335Z,65.97
2018-11-21T04:34:51.678Z,60.63
2018-11-21T04:37:21.210Z,62.17
2018-11-21T04:39:54.197Z,60.87
2018-11-21T04:42:23.309Z,58.10
2018-11-21T04:44:52.939Z,68.33
2018-11-21T04:47:22.087Z,60.47
2018-11-21T04:49:53.011Z,66.27
2018-11-21T04:52:22.165Z,60.67
2018-11-21T04:54:53.301Z,58.47
2018-11-21T04:57:45.380Z,64.90
2018-11-21T05:00:16.853Z,62.03
2018-11-21T05:02:52.323Z,65.03
2018-11-21T05:05:23.395Z,60.50
2018-11-21T05:07:53.277Z,60.77
2018-11-21T05:10:28.633Z,61.87
2018-11-21T05:12:55.571Z,59.17
2018-11-21T05:15:28.026Z,61.27
2018-11-21T05:17:57.190Z,65.73
2018-11-21T05:21:01.988Z,65.03
2018-11-21T05:23:24.036Z,63.37
2018-11-21T05:26:17.954Z,63.93
2018-11-21T05:29:16.258Z,61.67
2018-11-21T05:32:15.569Z,58.90
2018-11-21T05:40:56.266Z,62.67
2018-11-21T05:43:46.478Z,63.90
2018-11-21T05:46:50.538Z,66.67
2018-11-21T05:53:48.107Z,67.23
2018-11-21T05:56:34.799Z,66.80
2018-11-21T05:59:12.278Z,65.30
2018-11-21T06:05:34.386Z,61.80
2018-11-21T06:08:49.563Z,60.70
2018-11-21T06:14:12.009Z,62.00
2018-11-21T06:16:53.193Z,63.37
2018-11-21T06:19:25.636Z,64.83
2018-11-21T06:21:55.693Z,57.33
2018-11-21T06:24:25.645Z,62.33
2018-11-21T06:26:59.355Z,64.77
2018-11-21T06:29:31.171Z,69.82
2018-11-21T06:32:01.169Z,62.50
2018-11-21T06:34:38.891Z,59.00
2018-11-21T06:37:06.866Z,64.17
2018-11-21T06:39:54.606Z,61.00
2018-11-21T06:42:31.920Z,61.93
2018-11-21T06:45:03.814Z,62.60
2018-11-21T06:47:37.915Z,65.40
2018-11-21T06:50:08.121Z,64.57
2018-11-21T06:52:45.663Z,65.17
2018-11-21T06:55:24.218Z,71.10
2018-11-21T06:58:40.276Z,60.57
2018-11-21T07:01:17.086Z,59.40
2018-11-21T07:03:47.744Z,64.63
2018-11-21T07:06:17.793Z,59.00
2018-11-21T07:08:47.496Z,64.83
2018-11-21T07:11:20.631Z,63.30
2018-11-21T07:13:48.325Z,64.77
2018-11-21T07:16:22.058Z,63.80
2018-11-21T07:18:53.355Z,61.87
2018-11-21T07:21:23.337Z,59.97
2018-11-21T07:23:53.816Z,61.53
2018-11-21T07:26:26.781Z,63.57
2018-11-21T07:28:56.140Z,65.17
2018-11-21T07:31:25.985Z,66.87
2018-11-21T07:33:56.501Z,63.80
2018-11-21T07:36:29.001Z,63.70
2018-11-21T07:38:56.489Z,61.20
2018-11-21T07:41:25.888Z,60.07
2018-11-21T07:43:55.325Z,59.33
2018-11-21T07:46:25.772Z,61.33
2018-11-21T07:48:56.172Z,62.43
2018-11-21T07:51:25.692Z,61.43
2018-11-21T07:53:55.079Z,60.97
2018-11-21T07:57:15.496Z,62.07
2018-11-21T08:00:54.711Z,60.93
2018-11-21T08:03:25.918Z,63.30
2018-11-21T08:06:14.578Z,65.83
2018-11-21T08:09:05.311Z,66.80
2018-11-21T08:11:52.169Z,70.83
2018-11-21T08:14:44.130Z,64.33
2018-11-21T08:17:36.512Z,69.03
2018-11-21T08:20:35.338Z,71.70
2018-11-21T08:23:22.624Z,81.17
2018-11-21T08:26:14.122Z,73.07
2018-11-21T08:28:53.051Z,67.70
2018-11-21T08:31:22.952Z,64.57
2018-11-21T08:33:53.546Z,63.47
2018-11-21T08:36:23.010Z,58.43
2018-11-21T08:38:52.392Z,57.77
2018-11-21T08:41:22.296Z,60.80
2018-11-21T08:43:51.574Z,63.27
2018-11-21T08:46:21.383Z,63.90
2018-11-21T08:48:52.322Z,62.53
2018-11-21T08:51:21.877Z,63.60
2018-11-21T08:53:51.598Z,58.37
2018-11-21T08:56:20.855Z,60.53
2018-11-21T08:58:59.902Z,60.83
2018-11-21T09:01:29.331Z,61.83
2018-11-21T09:03:58.787Z,61.90
2018-11-21T09:06:28.146Z,60.97
2018-11-21T09:08:58.027Z,70.60
2018-11-21T09:11:27.795Z,70.17
2018-11-21T09:13:59.047Z,67.27
2018-11-21T09:16:28.343Z,62.77
2018-11-21T09:18:58.480Z,63.87
2018-11-21T09:21:27.784Z,82.53
2018-11-21T09:23:57.217Z,67.80
2018-11-21T09:26:26.640Z,68.37
2018-11-21T09:28:56.226Z,61.07
2018-11-21T09:31:25.760Z,61.10
2018-11-21T09:33:56.040Z,68.17
2018-11-21T09:36:25.888Z,70.93
2018-11-21T09:38:55.160Z,71.37
2018-11-21T09:41:24.523Z,64.70
2018-11-21T09:43:54.357Z,66.50
2018-11-21T09:46:23.885Z,68.87
2018-11-21T09:48:53.261Z,73.17
2018-11-21T09:51:23.165Z,70.90
2018-11-21T09:53:52.749Z,67.90
2018-11-21T09:56:25.746Z,67.63
2018-11-21T09:58:53.260Z,65.00
2018-11-21T10:01:59.060Z,71.63
2018-11-21T10:04:34.770Z,68.23
2018-11-21T10:07:04.140Z,69.97
2018-11-21T10:09:36.346Z,64.90
2018-11-21T10:12:05.679Z,66.27
2018-11-21T10:14:35.432Z,70.77
2018-11-21T10:17:08.063Z,74.63
2018-11-21T10:19:37.421Z,70.20
2018-11-21T10:22:14.035Z,72.87
2018-11-21T10:24:52.865Z,70.30
2018-11-21T10:27:23.351Z,72.47
2018-11-21T10:29:53.410Z,71.23
2018-11-21T10:32:22.742Z,62.83
2018-11-21T10:34:52.808Z,72.50
2018-11-21T10:37:24.580Z,64.70
2018-11-21T10:39:54.104Z,67.60
2018-11-21T10:42:23.608Z,60.80
2018-11-21T10:44:54.384Z,59.23
2018-11-21T10:47:25.043Z,63.27
2018-11-21T10:49:58.804Z,62.70
2018-11-21T10:52:31.587Z,61.27
2018-11-21T10:54:57.837Z,62.30
2018-11-21T10:57:33.775Z,66.27
2018-11-21T11:00:03.656Z,64.47
2018-11-21T11:02:51.243Z,63.70
2018-11-21T11:06:02.581Z,63.13
2018-11-21T11:09:04.177Z,71.80
2018-11-21T11:22:41.404Z,60.03
2018-11-21T11:25:41.377Z,63.83
2018-11-21T11:28:47.531Z,61.57
2018-11-21T11:31:44.677Z,57.13
2018-11-21T11:34:35.424Z,60.67
2018-11-21T11:37:22.196Z,63.03
2018-11-21T11:40:08.708Z,66.67
2018-11-21T11:42:59.812Z,71.43
2018-11-21T11:45:46.588Z,61.97
2018-11-21T11:48:37.642Z,63.23
2018-11-21T11:51:24.869Z,67.27
2018-11-21T11:54:24.374Z,61.70
2018-11-21T11:57:02.026Z,59.03
2018-11-21T11:59:49.470Z,62.17
2018-11-21T12:02:43.114Z,61.97
2018-11-21T12:05:28.902Z,65.90
2018-11-21T12:08:22.762Z,58.23
2018-11-21T12:11:15.984Z,58.47
2018-11-21T12:14:03.247Z,64.17
2018-11-21T12:16:54.014Z,62.40
2018-11-21T12:19:50.828Z,59.17
2018-11-21T12:22:41.622Z,57.80
2018-11-21T12:25:28.224Z,60.90
2018-11-21T12:28:11.394Z,61.40
2018-11-21T12:31:05.562Z,58.43
2018-11-21T12:33:53.623Z,62.07
2018-11-21T12:36:40.405Z,59.07
2018-11-21T12:39:28.890Z,60.87
2018-11-21T12:42:29.042Z,61.23
2018-11-21T12:45:17.109Z,64.93
2018-11-21T12:48:03.565Z,56.33
2018-11-21T12:50:50.691Z,62.83
2018-11-21T12:53:37.631Z,57.20
2018-11-21T12:56:20.823Z,54.93
2018-11-21T12:59:27.234Z,57.50
2018-11-21T13:02:14.035Z,55.37
2018-11-21T13:05:08.066Z,55.87
2018-11-21T13:07:57.336Z,55.57
2018-11-21T13:10:47.986Z,50.43
2018-11-21T13:13:34.972Z,50.37
2018-11-21T13:16:29.183Z,52.93
2018-11-21T13:19:14.109Z,52.23
2018-11-21T13:22:00.820Z,47.27
2018-11-21T13:24:58.976Z,50.63
2018-11-21T13:28:05.564Z,52.93
2018-11-21T13:30:44.991Z,56.53
2018-11-21T13:33:33.780Z,51.60
2018-11-21T13:36:31.199Z,52.93
2018-11-21T13:39:17.802Z,56.60
2018-11-21T13:42:04.559Z,62.87
2018-11-21T13:45:11.158Z,57.60
2018-11-21T13:48:00.682Z,58.87
2018-11-21T13:50:47.775Z,60.90
2018-11-21T13:53:23.456Z,59.70
2018-11-21T13:55:52.280Z,59.40
2018-11-21T13:58:21.215Z,58.23
2018-11-21T14:00:50.500Z,57.57
2018-11-21T14:03:19.379Z,58.93
2018-11-21T14:05:48.284Z,56.60
2018-11-21T14:08:17.191Z,59.43
2018-11-21T14:10:46.089Z,52.93
2018-11-21T14:13:15.010Z,52.90
2018-11-21T14:15:43.898Z,54.37
2018-11-21T14:18:12.816Z,52.90
2018-11-21T14:20:41.791Z,57.70
2018-11-21T14:23:10.683Z,51.50
2018-11-21T14:25:39.624Z,55.23
2018-11-21T14:28:08.907Z,51.23
2018-11-21T14:30:37.800Z,53.47
2018-11-21T14:33:06.757Z,56.50
2018-11-21T14:35:35.682Z,54.50
2018-11-21T14:38:05.215Z,56.33
2018-11-21T14:40:34.121Z,59.20
2018-11-21T14:43:03.032Z,55.57
2018-11-21T14:45:31.921Z,55.83
2018-11-21T14:48:01.079Z,51.60
2018-11-21T14:50:32.534Z,55.03
2018-11-21T14:53:01.457Z,56.70
2018-11-21T14:55:30.380Z,54.30
2018-11-21T14:57:59.316Z,56.13
2018-11-21T15:00:28.288Z,59.77
2018-11-21T15:02:57.284Z,55.30
2018-11-21T15:05:26.448Z,61.73
2018-11-21T15:07:55.328Z,55.70
2018-11-21T15:10:24.220Z,56.80
2018-11-21T15:12:53.469Z,54.67
2018-11-21T15:15:22.428Z,57.63
2018-11-21T15:17:51.719Z,55.60
2018-11-21T15:20:22.470Z,56.13
2018-11-21T15:22:52.011Z,53.77
2018-11-21T15:25:22.093Z,58.10
2018-11-21T15:27:50.984Z,55.50
2018-11-21T15:30:22.325Z,54.00
2018-11-21T15:32:51.225Z,52.77
2018-11-21T15:35:20.555Z,52.10
2018-11-21T15:37:49.443Z,57.30
2018-11-21T15:40:20.061Z,56.30
2018-11-21T15:42:48.974Z,54.00
2018-11-21T15:45:19.618Z,56.33
2018-11-21T15:47:53.554Z,59.40
2018-11-21T15:50:22.452Z,55.97
2018-11-21T15:52:53.133Z,55.47
2018-11-21T15:55:21.283Z,53.97
2018-11-21T15:57:50.180Z,53.73
2018-11-21T16:00:21.832Z,50.73
2018-11-21T16:02:52.249Z,54.47
2018-11-21T16:05:21.510Z,54.37
2018-11-21T16:07:50.662Z,50.10
2018-11-21T16:10:21.226Z,54.73
2018-11-21T16:12:50.123Z,54.93
2018-11-21T16:15:22.163Z,50.93
2018-11-21T16:17:51.104Z,53.47
2018-11-21T16:20:20.551Z,56.80
2018-11-21T16:22:49.434Z,51.27
2018-11-21T16:25:19.631Z,49.70
2018-11-21T16:27:48.568Z,56.80
2018-11-21T16:30:18.978Z,50.83
2018-11-21T16:32:48.056Z,51.80
2018-11-21T16:35:17.011Z,52.97
2018-11-21T16:37:46.026Z,50.63
2018-11-21T16:40:16.995Z,49.43
2018-11-21T16:42:46.159Z,48.27
2018-11-21T16:45:17.346Z,46.30
2018-11-21T16:47:46.586Z,47.73
2018-11-21T16:50:16.865Z,50.77
2018-11-21T16:52:45.879Z,47.20
2018-11-21T16:55:16.550Z,47.17
2018-11-21T16:57:46.151Z,48.17
2018-11-21T17:00:17.316Z,51.27
2018-11-21T17:02:46.284Z,44.50
2018-11-21T17:05:16.736Z,44.90
2018-11-21T17:07:45.607Z,45.43
2018-11-21T17:10:19.019Z,44.93
2018-11-21T17:12:48.651Z,44.23
2018-11-21T17:15:21.698Z,43.40
2018-11-21T17:17:50.600Z,47.37
2018-11-21T17:20:21.242Z,50.37
2018-11-21T17:22:51.739Z,49.87
2018-11-21T17:25:22.638Z,40.37
2018-11-21T17:27:51.604Z,46.77
2018-11-21T17:30:21.495Z,45.97
2018-11-21T17:32:50.626Z,48.43
2018-11-21T17:35:20.109Z,48.80
2018-11-21T17:37:49.504Z,49.57
2018-11-21T17:40:24.013Z,50.67
2018-11-21T17:42:53.767Z,53.03
2018-11-21T17:45:22.763Z,50.70
2018-11-21T17:47:52.285Z,51.57
2018-11-21T17:50:22.552Z,48.70
2018-11-21T17:52:53.092Z,49.93
2018-11-21T17:55:23.655Z,53.50
2018-11-21T17:57:52.639Z,50.30
2018-11-21T18:00:23.044Z,52.43
2018-11-21T18:02:52.298Z,52.73
2018-11-21T18:05:23.066Z,57.17
2018-11-21T18:07:51.989Z,61.30
2018-11-21T18:10:22.655Z,59.90
2018-11-21T18:12:51.569Z,62.60
2018-11-21T18:15:20.971Z,60.93
2018-11-21T18:17:50.137Z,62.00
2018-11-21T18:20:19.636Z,53.33
2018-11-21T18:22:49.388Z,51.40
2018-11-21T18:25:23.178Z,45.90
2018-11-21T18:27:52.077Z,53.27
2018-11-21T18:30:22.191Z,53.17
2018-11-21T18:32:51.499Z,52.00
2018-11-21T18:35:21.733Z,50.90
2018-11-21T18:37:50.639Z,51.37
2018-11-21T18:40:24.210Z,52.00
2018-11-21T18:42:53.258Z,51.00
2018-11-21T18:45:28.184Z,51.90
2018-11-21T18:47:57.081Z,46.73
2018-11-21T18:50:25.972Z,50.60
2018-11-21T18:52:56.243Z,52.43
2018-11-21T18:55:27.607Z,51.30
2018-11-21T18:58:42.320Z,51.80
2018-11-21T19:01:11.358Z,52.10
2018-11-21T19:03:40.789Z,51.77
2018-11-21T19:06:09.979Z,51.43
2018-11-21T19:08:38.965Z,54.50
